Time;durP1;ratioP1;P1;durP2;ratioP2;P2;SDS_P1;SDS_P2;PMS_P1;PMS_P2;Temp;Humidity;BMP_temperature;BMP_pressure;BME280_temperature;BME280_humidity;BME280_pressure;Samples;Min_cycle;Max_cycle;Signal;HPM_P1;HPM_P2
2023/10/13 00:01:54;;;;;;;4.38;3.20;;;15.40;99.90;;;;;;4986196;28;20122;-39
2023/10/13 00:04:24;;;;;;;5.25;3.13;;;15.50;99.90;;;;;;4986686;28;20075;-38
2023/10/13 00:06:56;;;;;;;5.13;2.90;;;15.50;99.90;;;;;;4987656;28;20026;-37
2023/10/13 00:09:31;;;;;;;5.65;3.38;;;15.50;99.90;;;;;;4984486;28;20373;-39
2023/10/13 00:11:58;;;;;;;5.63;2.88;;;15.50;99.90;;;;;;4980672;28;20034;-39
2023/10/13 00:14:32;;;;;;;4.35;3.35;;;15.50;99.90;;;;;;4983922;28;20878;-35
2023/10/13 00:17:05;;;;;;;5.97;2.95;;;15.50;99.90;;;;;;4983721;28;20046;-37
2023/10/13 00:19:38;;;;;;;5.75;3.20;;;15.50;99.90;;;;;;4985604;28;20041;-39
2023/10/13 00:22:24;;;;;;;5.88;3.10;;;15.50;99.90;;;;;;4985451;28;20034;-39
2023/10/13 00:24:51;;;;;;;5.57;2.80;;;15.50;99.90;;;;;;4984465;28;20032;-38
2023/10/13 00:27:30;;;;;;;9.13;3.25;;;15.50;99.90;;;;;;4985232;28;20027;-37
2023/10/13 00:32:51;;;;;;;4.20;2.58;;;15.50;99.90;;;;;;4981552;28;20069;-39
2023/10/13 00:35:35;;;;;;;5.22;2.72;;;15.60;99.90;;;;;;4988436;28;20428;-40
2023/10/13 00:38:13;;;;;;;5.05;2.90;;;15.60;99.90;;;;;;4988093;28;20566;-38
2023/10/13 00:40:42;;;;;;;;;;;15.60;99.90;;;;;;4979680;28;20026;-37
2023/10/13 00:48:33;;;;;;;7.57;3.17;;;15.20;99.90;;;;;;4987232;28;20066;-32
2023/10/13 00:51:06;;;;;;;7.88;4.32;;;15.10;99.90;;;;;;4980868;28;20501;-30
2023/10/13 00:53:33;;;;;;;5.15;3.00;;;15.20;99.90;;;;;;4982403;28;20068;-30
2023/10/13 00:56:26;;;;;;;5.45;3.30;;;15.30;99.90;;;;;;4987861;28;20439;-31
2023/10/13 00:58:52;;;;;;;5.05;2.92;;;15.30;99.90;;;;;;4989638;28;20045;-29
2023/10/13 01:01:18;;;;;;;10.48;3.00;;;15.30;99.90;;;;;;4988945;28;20035;-32
2023/10/13 01:03:55;;;;;;;5.32;2.90;;;15.30;99.90;;;;;;4987360;28;20039;-35
2023/10/13 01:06:25;;;;;;;5.32;2.45;;;15.30;99.90;;;;;;4987564;28;20022;-33
2023/10/13 01:09:00;;;;;;;4.80;3.50;;;15.40;99.90;;;;;;4979260;28;20034;-32
2023/10/13 01:11:29;;;;;;;4.88;2.95;;;15.40;99.90;;;;;;4981695;28;20033;-31
2023/10/13 01:13:57;;;;;;;4.57;2.65;;;15.40;99.90;;;;;;4988662;28;20055;-31
2023/10/13 01:16:26;;;;;;;10.45;3.30;;;15.50;99.90;;;;;;4984441;28;20030;-33
2023/10/13 01:18:52;;;;;;;3.88;3.03;;;15.50;99.90;;;;;;4982957;28;20026;-31
2023/10/13 01:21:27;;;;;;;4.85;3.13;;;15.50;99.90;;;;;;4984307;28;20023;-34
2023/10/13 01:23:53;;;;;;;6.07;2.63;;;15.50;99.90;;;;;;4987621;28;20085;-31
2023/10/13 01:26:26;;;;;;;4.10;3.47;;;15.50;99.90;;;;;;4981954;28;20034;-32
2023/10/13 01:28:54;;;;;;;4.78;3.25;;;15.50;99.90;;;;;;4977973;28;20037;-33
2023/10/13 01:31:37;;;;;;;3.55;2.55;;;15.50;99.90;;;;;;4979529;28;20203;-33
2023/10/13 01:34:02;;;;;;;6.03;2.80;;;15.50;99.90;;;;;;4979637;28;20055;-32
2023/10/13 01:36:35;;;;;;;5.10;2.95;;;15.50;99.90;;;;;;4981771;28;20040;-34
2023/10/13 01:39:01;;;;;;;4.97;2.75;;;15.50;99.90;;;;;;4981887;28;20038;-33
2023/10/13 01:41:28;;;;;;;4.15;3.00;;;15.40;99.90;;;;;;4979311;28;20034;-34
2023/10/13 01:43:57;;;;;;;5.25;2.80;;;15.40;99.90;;;;;;4977203;28;20558;-32
2023/10/13 01:46:22;;;;;;;6.03;3.03;;;15.40;99.90;;;;;;4982591;28;20030;-32
2023/10/13 01:48:48;;;;;;;7.22;3.20;;;15.20;99.90;;;;;;4983495;28;20120;-32
2023/10/13 01:51:14;;;;;;;5.40;3.05;;;15.20;99.90;;;;;;4982181;28;20429;-33
2023/10/13 01:53:41;;;;;;;9.13;3.20;;;15.10;99.90;;;;;;4985722;28;20152;-32
2023/10/13 01:56:10;;;;;;;5.43;3.40;;;15.10;99.90;;;;;;4990198;28;20041;-31
2023/10/13 01:58:43;;;;;;;5.75;2.80;;;15.10;99.90;;;;;;4983920;28;20771;-31
2023/10/13 02:01:10;;;;;;;3.83;3.05;;;15.00;99.90;;;;;;4986220;28;20100;-33
2023/10/13 02:03:45;;;;;;;7.00;3.00;;;15.00;99.90;;;;;;4983087;28;20037;-32
2023/10/13 02:06:16;;;;;;;5.40;2.92;;;15.00;99.90;;;;;;4989192;28;20115;-33
2023/10/13 02:08:43;;;;;;;8.30;3.00;;;14.90;99.90;;;;;;4987321;28;20026;-34
2023/10/13 02:11:09;;;;;;;7.55;3.17;;;14.80;99.90;;;;;;4984998;28;20496;-38
2023/10/13 02:13:49;;;;;;;6.75;2.50;;;14.80;99.90;;;;;;4984256;28;20036;-41
2023/10/13 02:16:20;;;;;;;3.85;2.95;;;14.70;99.90;;;;;;4987759;28;20073;-36
2023/10/13 02:18:51;;;;;;;6.70;2.97;;;14.70;99.90;;;;;;4981225;28;20516;-38
2023/10/13 02:21:17;;;;;;;3.58;2.80;;;14.60;99.90;;;;;;4981054;28;20157;-37
2023/10/13 02:23:45;;;;;;;7.70;2.80;;;14.50;99.90;;;;;;4986675;28;20125;-38
2023/10/13 02:26:30;;;;;;;5.30;2.60;;;14.40;99.90;;;;;;4984286;28;20047;-40
2023/10/13 02:29:00;;;;;;;7.70;2.97;;;14.30;99.90;;;;;;4965354;28;20034;-38
2023/10/13 02:31:27;;;;;;;4.90;2.80;;;14.10;99.90;;;;;;4983406;28;20030;-37
2023/10/13 02:33:53;;;;;;;8.30;3.13;;;14.10;99.90;;;;;;4984473;28;20488;-40
2023/10/13 02:36:36;;;;;;;5.50;2.80;;;14.10;99.90;;;;;;4987129;28;20038;-37
2023/10/13 02:39:07;;;;;;;6.82;2.90;;;14.10;99.90;;;;;;4988415;28;20034;-39
2023/10/13 02:41:35;;;;;;;4.90;2.70;;;14.10;99.90;;;;;;4982063;28;20072;-40
2023/10/13 02:44:01;;;;;;;6.28;3.00;;;14.10;99.90;;;;;;4983371;28;20047;-40
2023/10/13 02:46:29;;;;;;;4.07;2.83;;;14.10;99.90;;;;;;4987086;28;20022;-36
2023/10/13 02:48:57;;;;;;;5.97;2.85;;;14.10;99.90;;;;;;4983940;28;20027;-38
2023/10/13 02:51:31;;;;;;;5.80;2.97;;;14.00;99.90;;;;;;4988804;28;20083;-34
2023/10/13 02:54:02;;;;;;;4.85;3.25;;;14.00;99.90;;;;;;4983271;28;20507;-41
2023/10/13 02:56:29;;;;;;;4.85;2.80;;;13.90;99.90;;;;;;4987684;28;20035;-41
2023/10/13 02:59:04;;;;;;;5.85;3.15;;;13.80;99.90;;;;;;4982745;28;20034;-41
2023/10/13 03:01:33;;;;;;;5.45;2.58;;;13.80;99.90;;;;;;4992866;28;20038;-32
2023/10/13 03:04:00;;;;;;;6.82;2.80;;;13.70;99.90;;;;;;4986387;28;20044;-34
2023/10/13 03:06:34;;;;;;;4.80;3.00;;;13.50;99.90;;;;;;4987939;28;20073;-36
2023/10/13 03:09:14;;;;;;;3.88;3.50;;;13.50;99.90;;;;;;4989314;28;20855;-34
2023/10/13 03:11:48;;;;;;;6.70;2.83;;;13.40;99.90;;;;;;4983438;28;20033;-35
2023/10/13 03:14:23;;;;;;;5.40;3.20;;;13.30;99.90;;;;;;4989436;28;20038;-33
2023/10/13 03:16:50;;;;;;;4.80;2.60;;;13.10;99.90;;;;;;4986894;28;20030;-32
2023/10/13 03:19:19;;;;;;;7.78;2.38;;;12.90;99.90;;;;;;4987088;28;20029;-33
2023/10/13 03:21:46;;;;;;;4.28;2.38;;;12.90;99.90;;;;;;4980977;28;20125;-36
2023/10/13 03:24:13;;;;;;;8.82;3.65;;;12.90;99.90;;;;;;4986334;28;20040;-39
2023/10/13 03:26:44;;;;;;;6.07;2.95;;;12.90;99.90;;;;;;4986808;28;20038;-39
2023/10/13 03:29:13;;;;;;;6.53;3.17;;;13.00;99.90;;;;;;4982099;28;20051;-37
2023/10/13 03:31:39;;;;;;;4.35;2.60;;;13.00;99.90;;;;;;4987369;28;20035;-39
2023/10/13 03:34:09;;;;;;;4.45;2.78;;;13.00;99.90;;;;;;4988610;28;20133;-39
2023/10/13 03:36:56;;;;;;;5.65;3.45;;;13.00;99.90;;;;;;4986843;28;20077;-36
2023/10/13 03:39:28;;;;;;;5.68;2.72;;;13.00;99.90;;;;;;4990343;28;20061;-40
2023/10/13 03:41:54;;;;;;;5.75;2.80;;;13.00;99.90;;;;;;4985769;28;20031;-36
2023/10/13 03:44:20;;;;;;;4.80;2.50;;;12.90;99.90;;;;;;4987270;28;20061;-38
2023/10/13 03:46:47;;;;;;;4.93;2.75;;;12.90;99.90;;;;;;4984699;28;20153;-39
2023/10/13 03:49:20;;;;;;;5.23;2.70;;;12.90;99.90;;;;;;4977916;28;20535;-37
2023/10/13 03:51:47;;;;;;;6.30;2.92;;;13.00;99.90;;;;;;4984765;28;20627;-38
2023/10/13 03:54:16;;;;;;;5.30;2.83;;;12.90;99.90;;;;;;4982132;28;20129;-35
2023/10/13 03:56:44;;;;;;;3.58;2.33;;;12.90;99.90;;;;;;4979453;28;20030;-37
2023/10/13 03:59:17;;;;;;;4.35;2.83;;;12.90;99.90;;;;;;4979891;28;20729;-38
2023/10/13 04:04:11;;;;;;;4.22;2.53;;;12.80;99.90;;;;;;4984690;28;20030;-39
2023/10/13 04:17:15;;;;;;;6.32;3.72;;;12.20;99.90;;;;;;4987750;28;20037;-39
2023/10/13 04:23:17;;;;;;;4.28;3.58;;;12.10;99.90;;;;;;4990035;28;20050;-40
2023/10/13 04:25:35;;;;;;;8.07;3.50;;;12.10;99.90;;;;;;4982997;28;20112;-40
2023/10/13 04:30:59;;;;;;;5.22;3.03;;;12.00;99.90;;;;;;4983986;28;20042;-38
2023/10/13 04:36:13;;;;;;;5.05;3.55;;;12.10;99.90;;;;;;4982486;28;20427;-29
2023/10/13 04:39:09;;;;;;;10.63;3.33;;;12.00;99.90;;;;;;4985646;28;20128;-30
2023/10/13 04:41:41;;;;;;;8.20;3.45;;;12.00;99.90;;;;;;4986548;28;20157;-30
2023/10/13 04:52:06;;;;;;;4.70;2.70;;;11.70;99.90;;;;;;4981705;28;20034;-29
2023/10/13 04:55:17;;;;;;;4.97;3.22;;;11.60;99.90;;;;;;4980360;28;20056;-32
2023/10/13 04:57:32;;;;;;;6.80;2.80;;;11.60;99.90;;;;;;4975039;28;20549;-31
2023/10/13 05:00:55;;;;;;;4.03;2.88;;;11.70;99.90;;;;;;4982846;28;20472;-30
2023/10/13 05:51:47;;;;;;;5.55;3.40;;;10.90;99.90;;;;;;4983829;28;20399;-32
2023/10/13 06:29:35;;;;;;;4.88;2.80;;;11.30;99.90;;;;;;4985255;28;20099;-32
2023/10/13 06:32:01;;;;;;;6.32;2.65;;;11.40;99.90;;;;;;4984988;28;20490;-40
2023/10/13 06:34:44;;;;;;;7.93;3.45;;;11.40;99.90;;;;;;4976880;28;20549;-38
2023/10/13 06:37:49;;;;;;;9.25;3.35;;;11.50;99.90;;;;;;4982589;28;20038;-39
2023/10/13 06:42:47;;;;;;;6.72;3.00;;;11.60;99.90;;;;;;4986300;28;20030;-39
2023/10/13 06:45:12;;;;;;;4.70;2.90;;;11.70;99.90;;;;;;4981107;28;20393;-40
2023/10/13 06:47:44;;;;;;;10.85;3.90;;;11.70;99.90;;;;;;4980624;28;20058;-35
2023/10/13 06:50:15;;;;;;;3.95;3.15;;;11.80;99.90;;;;;;4988258;28;20030;-39
2023/10/13 06:52:42;;;;;;;6.72;3.03;;;11.80;99.90;;;;;;4986975;28;20080;-40
2023/10/13 06:55:10;;;;;;;7.13;3.60;;;11.90;99.90;;;;;;4985245;28;20062;-41
2023/10/13 06:57:36;;;;;;;5.15;2.92;;;11.90;99.90;;;;;;4987041;28;20427;-39
2023/10/13 07:00:07;;;;;;;4.72;2.88;;;11.90;99.90;;;;;;4981159;28;20173;-41
2023/10/13 07:02:34;;;;;;;5.60;3.10;;;12.00;99.90;;;;;;4985341;28;20045;-39
2023/10/13 07:05:11;;;;;;;4.65;2.95;;;12.00;99.90;;;;;;4982772;28;20032;-40
2023/10/13 07:07:39;;;;;;;4.32;2.97;;;12.00;99.90;;;;;;4982365;28;20027;-36
2023/10/13 07:10:11;;;;;;;9.00;3.97;;;12.10;99.90;;;;;;4989215;28;20026;-41
2023/10/13 07:12:43;;;;;;;9.85;3.15;;;12.10;99.90;;;;;;4986820;28;20018;-35
2023/10/13 07:15:19;;;;;;;8.38;3.70;;;12.20;99.90;;;;;;4983034;28;20038;-40
2023/10/13 07:17:54;;;;;;;5.95;3.15;;;12.30;99.90;;;;;;4989492;28;20046;-40
2023/10/13 07:20:34;;;;;;;7.35;3.30;;;12.30;99.90;;;;;;4983872;28;20033;-40
2023/10/13 07:23:03;;;;;;;8.15;3.65;;;12.40;99.90;;;;;;4988477;28;20038;-39
2023/10/13 07:25:32;;;;;;;7.15;3.17;;;12.50;99.90;;;;;;4985184;28;20026;-39
2023/10/13 07:28:08;;;;;;;5.80;2.92;;;12.70;99.90;;;;;;4980933;28;20034;-38
2023/10/13 07:30:49;;;;;;;7.82;2.90;;;12.80;99.90;;;;;;4984153;28;20096;-40
2023/10/13 07:33:19;;;;;;;5.53;3.03;;;12.90;99.90;;;;;;4982001;28;20038;-40
2023/10/13 07:35:51;;;;;;;6.60;2.90;;;13.00;99.90;;;;;;4978287;28;20072;-42
2023/10/13 07:38:21;;;;;;;4.15;3.15;;;13.10;99.90;;;;;;4980253;28;20030;-40
2023/10/13 07:40:53;;;;;;;7.07;3.08;;;13.30;99.90;;;;;;4982138;28;20069;-37
2023/10/13 07:43:22;;;;;;;6.25;3.00;;;13.50;99.90;;;;;;4987225;28;20034;-29
2023/10/13 07:45:52;;;;;;;5.85;2.40;;;13.60;99.90;;;;;;4986023;28;20022;-32
2023/10/13 07:48:20;;;;;;;6.55;2.70;;;13.80;99.90;;;;;;4981245;28;20572;-33
2023/10/13 07:51:18;;;;;;;7.35;3.42;;;14.00;99.90;;;;;;4983240;28;20054;-30
2023/10/13 07:53:48;;;;;;;7.72;3.00;;;14.20;99.90;;;;;;4811230;28;20042;-30
2023/10/13 07:56:18;;;;;;;3.17;2.20;;;14.50;99.90;;;;;;4984276;28;20488;-30
2023/10/13 07:59:00;;;;;;;8.05;2.42;;;14.70;99.90;;;;;;4985454;28;20026;-29
2023/10/13 08:01:26;;;;;;;6.43;2.60;;;15.10;99.90;;;;;;4982982;28;20042;-38
2023/10/13 08:04:35;;;;;;;6.57;2.70;;;15.40;99.90;;;;;;4981173;28;20156;-37
2023/10/13 08:06:41;;;;;;;6.03;2.83;;;15.70;99.90;;;;;;4973889;28;20460;-38
2023/10/13 08:09:08;;;;;;;4.13;2.30;;;15.90;99.90;;;;;;4983343;28;20113;-38
2023/10/13 08:11:37;;;;;;;6.30;2.30;;;16.00;99.90;;;;;;4979504;28;20041;-40
2023/10/13 08:14:12;;;;;;;;;;;16.30;99.90;;;;;;4979888;28;20038;-40
2023/10/13 08:16:45;;;;;;;4.40;2.30;;;16.50;99.90;;;;;;4979807;28;19940;-35
2023/10/13 08:19:15;;;;;;;4.65;2.03;;;16.70;99.90;;;;;;4979716;28;20033;-39
2023/10/13 08:21:49;;;;;;;8.77;2.80;;;16.90;99.90;;;;;;4974919;28;20023;-34
2023/10/13 08:24:16;;;;;;;6.43;2.50;;;17.00;99.90;;;;;;4985096;28;20410;-37
2023/10/13 08:26:57;;;;;;;6.97;2.70;;;17.30;99.90;;;;;;4983877;28;20603;-39
2023/10/13 08:34:59;;;;;;;5.78;2.58;;;17.80;99.90;;;;;;4983748;28;20019;-40
2023/10/13 08:45:20;;;;;;;5.15;2.20;;;18.50;99.90;;;;;;4980523;28;20035;-40
2023/10/13 08:48:12;;;;;;;6.63;2.22;;;18.60;99.90;;;;;;4977074;28;20034;-40
2023/10/13 09:04:22;;;;;;;5.30;1.92;;;19.70;99.90;;;;;;4984555;28;20583;-37
2023/10/13 09:18:15;;;;;;;4.35;1.60;;;20.20;99.90;;;;;;4979099;28;20396;-35
2023/10/13 09:23:25;;;;;;;3.55;2.10;;;20.60;99.90;;;;;;4979827;28;20540;-41
2023/10/13 09:25:57;;;;;;;5.85;1.90;;;20.70;99.90;;;;;;4978086;28;20449;-38
2023/10/13 09:28:37;;;;;;;4.57;1.77;;;20.80;99.90;;;;;;4971642;28;20378;-33
2023/10/13 09:31:07;;;;;;;4.15;1.83;;;20.90;99.90;;;;;;4978610;28;20054;-40
2023/10/13 09:33:35;;;;;;;4.65;2.00;;;21.00;99.90;;;;;;4982139;28;20488;-41
2023/10/13 09:36:04;;;;;;;4.25;1.70;;;21.10;99.90;;;;;;4981423;28;20550;-35
2023/10/13 09:38:33;;;;;;;4.68;1.98;;;21.20;99.90;;;;;;4975570;28;20050;-38
2023/10/13 09:41:01;;;;;;;4.55;2.30;;;21.30;99.90;;;;;;4980789;28;20033;-33
2023/10/13 09:43:30;;;;;;;5.07;1.85;;;21.50;99.90;;;;;;4985473;28;20045;-41
2023/10/13 09:46:17;;;;;;;4.55;2.35;;;21.70;99.90;;;;;;4977508;28;20027;-33
2023/10/13 09:48:47;;;;;;;3.00;1.80;;;21.70;99.90;;;;;;4979839;28;20035;-37
2023/10/13 09:51:21;;;;;;;5.38;1.70;;;21.70;99.90;;;;;;4980051;28;20113;-38
2023/10/13 09:54:06;;;;;;;6.38;1.85;;;21.70;99.90;;;;;;4982612;28;20062;-39
2023/10/13 09:56:54;;;;;;;3.92;1.50;;;21.80;99.90;;;;;;4981385;28;20470;-39
2023/10/13 09:59:35;;;;;;;3.95;1.92;;;21.80;99.90;;;;;;4979786;28;20117;-40
2023/10/13 10:02:08;;;;;;;5.45;1.60;;;22.00;99.90;;;;;;4984068;28;20034;-29
2023/10/13 10:04:51;;;;;;;6.45;2.20;;;22.10;99.90;;;;;;4976159;28;20420;-30
2023/10/13 10:07:28;;;;;;;6.28;2.00;;;22.20;99.90;;;;;;4987073;28;20027;-30
2023/10/13 10:10:01;;;;;;;5.83;1.97;;;22.30;99.90;;;;;;4981680;28;20362;-31
2023/10/13 10:12:50;;;;;;;9.02;2.10;;;22.40;99.90;;;;;;4989331;28;20034;-29
2023/10/13 10:15:44;;;;;;;2.83;1.75;;;22.50;99.90;;;;;;4982636;28;20034;-35
2023/10/13 10:18:21;;;;;;;4.45;1.60;;;22.60;99.90;;;;;;4986564;28;20065;-31
2023/10/13 10:20:51;;;;;;;;;;;22.70;99.90;;;;;;4985409;28;20583;-30
2023/10/13 10:23:28;;;;;;;4.43;1.60;;;22.80;99.90;;;;;;4988057;28;20224;-41
2023/10/13 10:26:04;;;;;;;5.18;1.88;;;22.80;99.90;;;;;;4987178;28;20090;-43
2023/10/13 10:28:41;;;;;;;6.68;1.95;;;22.90;99.90;;;;;;4983507;28;20434;-40
2023/10/13 10:31:21;;;;;;;7.13;2.28;;;23.10;99.90;;;;;;4981985;28;20088;-41
2023/10/13 10:33:50;;;;;;;5.57;1.90;;;23.20;99.90;;;;;;4989201;28;20420;-41
2023/10/13 10:36:27;;;;;;;5.40;1.70;;;23.30;99.90;;;;;;4988352;28;20065;-35
2023/10/13 10:39:00;;;;;;;4.75;1.88;;;23.20;99.90;;;;;;4978196;28;20030;-40
2023/10/13 10:47:01;;;;;;;4.97;1.60;;;23.40;99.90;;;;;;4987529;28;20114;-40
2023/10/13 10:49:30;;;;;;;5.80;2.05;;;23.50;99.90;;;;;;4974856;28;20035;-38
2023/10/13 10:52:04;;;;;;;5.35;1.85;;;23.60;99.90;;;;;;4984026;28;20030;-39
2023/10/13 10:54:31;;;;;;;3.72;1.45;;;23.60;99.90;;;;;;4982561;28;20073;-33
2023/10/13 10:57:10;;;;;;;5.47;2.08;;;23.50;99.90;;;;;;4987942;28;20092;-33
2023/10/13 10:59:39;;;;;;;4.18;1.58;;;23.50;99.90;;;;;;4981229;28;20084;-39
2023/10/13 11:02:07;;;;;;;6.45;1.80;;;23.50;99.90;;;;;;4982541;28;20078;-41
2023/10/13 11:04:41;;;;;;;2.50;1.35;;;23.50;99.90;;;;;;4982539;28;20643;-41
2023/10/13 11:07:08;;;;;;;3.70;1.65;;;23.50;99.90;;;;;;4984831;28;20038;-41
2023/10/13 11:12:06;;;;;;;4.55;1.85;;;23.70;99.90;;;;;;4980521;28;20112;-35
2023/10/13 11:14:32;;;;;;;3.55;1.65;;;23.70;99.90;;;;;;4979535;28;20035;-34
2023/10/13 11:17:05;;;;;;;6.55;1.67;;;23.80;99.90;;;;;;4980014;28;20040;-36
2023/10/13 11:19:36;;;;;;;5.15;1.30;;;23.80;99.90;;;;;;4978602;28;20033;-33
2023/10/13 11:22:42;;;;;;;1.98;1.20;;;23.70;99.90;;;;;;4984970;28;20026;-36
2023/10/13 11:25:10;;;;;;;7.75;2.00;;;23.70;99.90;;;;;;4984878;28;20064;-33
2023/10/13 11:30:19;;;;;;;4.43;1.70;;;23.70;99.90;;;;;;4972680;28;20109;-32
2023/10/13 11:32:46;;;;;;;5.13;1.50;;;23.70;99.90;;;;;;4983880;28;20030;-38
2023/10/13 11:35:21;;;;;;;6.00;2.00;;;23.90;99.90;;;;;;4977238;28;20057;-40
2023/10/13 11:38:49;;;;;;;7.32;2.08;;;24.00;99.90;;;;;;4990324;28;20023;-40
2023/10/13 11:40:43;;;;;;;6.18;2.20;;;24.00;99.90;;;;;;4974098;28;20114;-40
2023/10/13 11:43:15;;;;;;;4.32;2.03;;;23.90;99.90;;;;;;4985407;28;20077;-40
2023/10/13 11:45:55;;;;;;;3.08;1.38;;;23.90;99.90;;;;;;4980150;28;20113;-38
2023/10/13 11:48:34;;;;;;;4.13;1.70;;;24.00;99.90;;;;;;4976543;28;20026;-39
2023/10/13 11:51:00;;;;;;;4.28;1.65;;;24.00;99.90;;;;;;4982852;28;20569;-40
2023/10/13 11:53:28;;;;;;;6.18;1.77;;;24.00;99.90;;;;;;4983389;28;20035;-40
2023/10/13 11:55:55;;;;;;;8.10;1.70;;;23.90;99.90;;;;;;4979813;28;20046;-39
2023/10/13 11:58:20;;;;;;;5.45;2.10;;;23.90;99.90;;;;;;4989147;28;20034;-37
2023/10/13 12:01:19;;;;;;;4.10;1.70;;;23.90;99.90;;;;;;4981587;28;20076;-40
2023/10/13 12:06:22;;;;;;;7.50;2.10;;;24.00;99.90;;;;;;4980604;28;20474;-39
2023/10/13 12:08:52;;;;;;;6.25;2.08;;;24.10;99.90;;;;;;4981012;28;20042;-39
2023/10/13 12:11:30;;;;;;;4.32;1.63;;;24.20;99.90;;;;;;4980872;28;20034;-38
2023/10/13 12:13:56;;;;;;;5.20;2.10;;;24.30;99.90;;;;;;4979849;28;20396;-35
2023/10/13 12:16:22;;;;;;;4.45;1.80;;;24.40;99.90;;;;;;4978896;28;20034;-40
2023/10/13 12:18:53;;;;;;;4.10;1.70;;;24.50;99.90;;;;;;4981494;28;20027;-40
2023/10/13 12:21:21;;;;;;;7.57;2.28;;;24.40;99.90;;;;;;4981041;28;20053;-39
2023/10/13 12:23:47;;;;;;;6.68;1.95;;;24.50;99.90;;;;;;4983356;28;20022;-40
2023/10/13 12:26:19;;;;;;;5.70;1.92;;;24.50;99.90;;;;;;4983681;28;20025;-39
2023/10/13 12:28:51;;;;;;;3.05;1.60;;;24.50;99.90;;;;;;4987105;28;20041;-39
2023/10/13 12:31:17;;;;;;;4.00;1.85;;;24.50;99.90;;;;;;4985807;28;20085;-33
2023/10/13 12:33:47;;;;;;;2.13;1.40;;;24.60;99.90;;;;;;4985409;28;20373;-30
2023/10/13 12:52:54;;;;;;;2.53;1.50;;;24.70;99.90;;;;;;4974985;28;20384;-39
2023/10/13 12:57:33;;;;;;;5.45;2.08;;;24.70;99.90;;;;;;4981229;28;20038;-36
2023/10/13 12:59:59;;;;;;;3.90;1.98;;;24.70;99.90;;;;;;4984786;28;20081;-39
2023/10/13 13:02:25;;;;;;;3.90;1.88;;;24.70;99.90;;;;;;4982658;28;20492;-36
2023/10/13 13:04:56;;;;;;;4.03;2.03;;;24.70;99.90;;;;;;4983756;28;20018;-36
2023/10/13 13:07:29;;;;;;;5.50;1.75;;;24.70;99.90;;;;;;4989990;28;20504;-38
2023/10/13 13:09:58;;;;;;;3.78;1.80;;;24.80;99.90;;;;;;4983490;28;20062;-40
2023/10/13 13:12:24;;;;;;;4.03;1.77;;;24.80;99.90;;;;;;4983263;28;20038;-36
2023/10/13 13:14:54;;;;;;;3.22;1.77;;;24.80;99.90;;;;;;4983358;28;20392;-40
2023/10/13 13:17:21;;;;;;;7.30;2.20;;;24.80;99.90;;;;;;4976151;28;20035;-39
2023/10/13 13:19:47;;;;;;;5.57;1.90;;;24.90;99.90;;;;;;4983799;28;20026;-39
2023/10/13 13:22:13;;;;;;;4.30;1.83;;;24.90;99.90;;;;;;4975777;28;20099;-38
2023/10/13 13:24:46;;;;;;;3.15;1.67;;;24.80;99.90;;;;;;4985761;28;20722;-40
2023/10/13 13:27:19;;;;;;;4.55;1.90;;;24.80;99.90;;;;;;4983600;28;20085;-39
2023/10/13 13:29:45;;;;;;;4.97;1.95;;;24.80;99.90;;;;;;4978423;28;20031;-40
2023/10/13 13:32:28;;;;;;;4.75;1.80;;;24.90;99.90;;;;;;4977726;28;20599;-39
2023/10/13 13:34:57;;;;;;;4.45;2.25;;;24.90;99.90;;;;;;4981922;28;20049;-39
2023/10/13 13:37:22;;;;;;;4.38;2.10;;;24.90;99.90;;;;;;4976546;28;20050;-36
2023/10/13 13:39:48;;;;;;;4.25;1.75;;;24.90;99.90;;;;;;4980439;28;20587;-39
2023/10/13 13:42:17;;;;;;;4.25;1.83;;;24.90;99.90;;;;;;4983623;28;20039;-40
2023/10/13 13:44:46;;;;;;;2.15;1.63;;;24.90;99.90;;;;;;4989712;28;20022;-41
2023/10/13 13:47:16;;;;;;;5.15;2.47;;;24.90;99.90;;;;;;4976173;28;20031;-41
2023/10/13 13:49:52;;;;;;;4.93;1.85;;;24.70;99.90;;;;;;4985282;28;20109;-40
2023/10/13 13:52:27;;;;;;;6.70;2.05;;;24.80;99.90;;;;;;4986759;28;20026;-42
2023/10/13 13:54:53;;;;;;;5.38;1.85;;;24.80;99.90;;;;;;4983514;28;20193;-40
2023/10/13 13:57:19;;;;;;;4.22;2.25;;;24.80;99.90;;;;;;4983540;28;20180;-38
2023/10/13 13:59:45;;;;;;;5.70;2.60;;;24.80;99.90;;;;;;4986418;28;20026;-40
2023/10/13 14:02:19;;;;;;;8.18;2.70;;;24.80;99.90;;;;;;4984593;28;20084;-37
2023/10/13 14:04:50;;;;;;;5.47;2.10;;;24.80;99.90;;;;;;4988293;28;20057;-40
2023/10/13 14:07:19;;;;;;;4.03;2.05;;;24.90;99.90;;;;;;4984006;28;20030;-40
2023/10/13 14:09:45;;;;;;;4.25;2.05;;;24.80;99.90;;;;;;4977170;28;20090;-40
2023/10/13 14:12:29;;;;;;;7.20;2.30;;;24.80;99.90;;;;;;4981303;28;20600;-35
2023/10/13 14:14:56;;;;;;;3.70;2.17;;;24.80;99.90;;;;;;4986179;28;20768;-41
2023/10/13 14:17:35;;;;;;;4.75;2.00;;;24.70;99.90;;;;;;4984309;28;20022;-38
2023/10/13 14:20:15;;;;;;;5.60;2.30;;;24.70;99.90;;;;;;4984143;28;20026;-38
2023/10/13 14:22:41;;;;;;;3.90;1.95;;;24.70;99.90;;;;;;4979150;28;20076;-41
2023/10/13 14:25:09;;;;;;;3.22;1.92;;;24.70;99.90;;;;;;4982064;28;20426;-34
2023/10/13 14:27:35;;;;;;;2.92;1.77;;;24.60;99.90;;;;;;4986020;28;20118;-40
2023/10/13 14:30:02;;;;;;;3.53;1.80;;;24.70;99.90;;;;;;4984727;28;20042;-38
2023/10/13 14:32:28;;;;;;;4.25;1.98;;;24.60;99.90;;;;;;4982648;28;20062;-32
2023/10/13 14:34:54;;;;;;;5.72;2.30;;;24.60;99.90;;;;;;4985283;28;20077;-39
2023/10/13 14:37:26;;;;;;;2.85;1.90;;;24.50;99.90;;;;;;4992339;28;20101;-38
2023/10/13 14:39:56;;;;;;;2.83;2.00;;;24.40;99.90;;;;;;4982563;28;20038;-40
2023/10/13 14:42:26;;;;;;;4.55;2.17;;;24.40;99.90;;;;;;4986773;28;20039;-35
2023/10/13 14:44:57;;;;;;;2.38;1.83;;;24.40;99.90;;;;;;4985753;28;20027;-37
2023/10/13 14:47:24;;;;;;;5.25;2.13;;;24.40;99.90;;;;;;4978639;28;20496;-37
2023/10/13 14:50:03;;;;;;;9.63;2.43;;;24.30;99.90;;;;;;4985409;28;20037;-40
2023/10/13 14:52:32;;;;;;;3.85;2.05;;;24.20;99.90;;;;;;4983012;28;20313;-37
2023/10/13 14:54:58;;;;;;;4.13;1.92;;;24.20;99.90;;;;;;4986323;28;20046;-36
2023/10/13 14:57:24;;;;;;;5.88;2.45;;;24.20;99.90;;;;;;4985655;28;20026;-35
2023/10/13 14:59:54;;;;;;;4.88;1.80;;;24.10;99.90;;;;;;4986656;28;20034;-36
2023/10/13 15:02:20;;;;;;;5.50;2.22;;;24.00;99.90;;;;;;4982716;28;20041;-38
2023/10/13 15:04:49;;;;;;;4.72;2.17;;;24.00;99.90;;;;;;4984784;28;20022;-38
2023/10/13 15:07:17;;;;;;;5.47;2.53;;;24.00;99.90;;;;;;4986389;28;20035;-40
2023/10/13 15:09:44;;;;;;;5.05;2.28;;;23.90;99.90;;;;;;4984377;28;20057;-39
2023/10/13 15:12:13;;;;;;;6.38;2.60;;;23.90;99.90;;;;;;4991695;28;20030;-36
2023/10/13 15:14:42;;;;;;;5.57;2.40;;;23.80;99.90;;;;;;4979147;28;20034;-40
2023/10/13 15:17:09;;;;;;;3.25;1.90;;;23.80;99.90;;;;;;4990012;28;20140;-41
2023/10/13 15:19:42;;;;;;;9.20;2.30;;;23.70;99.90;;;;;;4982780;28;20023;-41
2023/10/13 15:22:16;;;;;;;4.97;2.40;;;23.70;99.90;;;;;;4985898;28;20041;-35
2023/10/13 15:24:57;;;;;;;7.35;2.40;;;23.60;99.90;;;;;;4980461;28;20038;-40
2023/10/13 15:27:23;;;;;;;9.52;2.50;;;23.50;99.90;;;;;;4985637;28;20042;-37
2023/10/13 15:29:50;;;;;;;5.45;2.33;;;23.40;99.90;;;;;;4988668;28;20091;-40
2023/10/13 15:35:00;;;;;;;9.75;2.88;;;23.30;99.90;;;;;;4982347;28;20092;-41
2023/10/13 15:37:27;;;;;;;4.93;3.13;;;23.20;99.90;;;;;;4985275;28;20447;-33
2023/10/13 15:39:53;;;;;;;7.88;2.95;;;23.20;99.90;;;;;;4983335;28;20022;-38
2023/10/13 15:42:20;;;;;;;7.45;3.35;;;23.10;99.90;;;;;;4980140;28;20077;-35
2023/10/13 15:44:46;;;;;;;4.93;2.90;;;23.00;99.90;;;;;;4981015;28;20102;-34
2023/10/13 15:47:12;;;;;;;7.05;3.00;;;22.90;99.90;;;;;;4987418;28;20586;-40
2023/10/13 15:49:41;;;;;;;7.32;3.30;;;22.90;99.90;;;;;;4979982;28;20070;-40
2023/10/13 15:52:07;;;;;;;6.30;3.20;;;22.70;99.90;;;;;;4982108;28;20033;-41
2023/10/13 15:54:35;;;;;;;5.72;3.17;;;22.70;99.90;;;;;;4985581;28;20055;-40
2023/10/13 15:57:00;;;;;;;5.95;3.15;;;22.60;99.90;;;;;;4993207;28;20044;-36
2023/10/13 15:59:26;;;;;;;6.38;3.03;;;22.50;99.90;;;;;;4985736;28;20038;-39
2023/10/13 16:01:57;;;;;;;5.70;2.63;;;22.40;99.90;;;;;;4989682;28;20034;-39
2023/10/13 16:04:23;;;;;;;5.15;2.92;;;22.30;99.90;;;;;;4986035;28;20049;-39
2023/10/13 16:06:52;;;;;;;4.63;2.92;;;22.20;99.90;;;;;;4985837;28;20464;-40
2023/10/13 16:09:25;;;;;;;3.85;2.70;;;22.10;99.90;;;;;;4982240;28;20045;-36
2023/10/13 16:11:51;;;;;;;7.55;3.13;;;22.00;99.90;;;;;;4986140;28;20030;-39
2023/10/13 16:14:17;;;;;;;9.95;3.30;;;21.90;99.90;;;;;;4982304;28;20576;-40
2023/10/13 16:16:47;;;;;;;7.07;2.88;;;21.80;99.90;;;;;;4985019;28;20030;-40
2023/10/13 16:19:17;;;;;;;4.80;3.00;;;21.60;99.90;;;;;;4986406;28;20451;-39
2023/10/13 16:21:45;;;;;;;4.55;2.50;;;21.50;99.90;;;;;;4979825;28;20018;-41
2023/10/13 16:24:11;;;;;;;7.05;2.85;;;21.30;99.90;;;;;;4986576;28;20034;-37
2023/10/13 16:26:40;;;;;;;5.28;2.83;;;21.20;99.90;;;;;;4978611;28;20018;-40
2023/10/13 16:29:07;;;;;;;7.13;2.80;;;21.20;99.90;;;;;;4981586;28;20038;-39
2023/10/13 16:31:33;;;;;;;6.35;3.10;;;21.00;99.90;;;;;;4977203;28;20057;-41